Nearby METAR Reports

 

KSJC - San Jose, California, USA
Distance from station: NE 9mi, 14km
Updated: Fri, 04/12/2024 5:53am
Clear
Clear
 Wind from calm
Wind: Calm
Temperature: 57°F, 14°C
Dew Point: 48°F, 9°C
Humidity: 72%
Barometer: 29.77 inHg, 1008.1 hPa
Clouds: Clear
Visibility: 10 miles, 16 km
2024/04/12 09:53 KSJC 120953Z AUTO 00000KT 10SM CLR 14/09 A2977 RMK AO2 SLP079 T01390089
KNUQ - Moffett Nas/Mtn, California, USA
Distance from station: N 9mi, 14km
Updated: Fri, 04/12/2024 6:35am
Clear
Clear
 Wind from calm
Wind: Calm
Temperature: 54°F, 12°C
Dew Point: 50°F, 10°C
Humidity: 88%
Barometer: 29.75 inHg, 1007.5 hPa
Clouds: Clear
Visibility: 9 miles, 14 km
2024/04/12 10:35 KNUQ 121035Z AUTO 00000KT 9SM CLR 12/10 A2975 RMK AO2
 
KPAO - Palo Alto, California, USA
Distance from station: NNW 14mi, 23km
Updated: Thu, 04/11/2024 11:47pm
NOT Current
Clear
Clear
 Wind from W
Wind: W 6 mph, 9 km/h
Temperature: 57°F, 14°C
Dew Point: 48°F, 9°C
Humidity: 72%
Barometer: 29.82 inHg, 1009.8 hPa
Clouds: Clear
Visibility: 10 miles, 16 km
2024/04/12 03:47 KPAO 120347Z 28005KT 10SM SKC 14/09 A2982 RMK LAST
KRHV - San Jose/Reid, California, USA
Distance from station: ENE 12mi, 19km
Updated: Fri, 04/12/2024 12:47am
NOT Current
Clear
Clear
 Wind from WNW
Wind: WNW 5 mph, 7 km/h
Temperature: 59°F, 15°C
Dew Point: 52°F, 11°C
Humidity: 77%
Barometer: 29.83 inHg, 1010.2 hPa
Clouds: Clear
Visibility: 10 miles, 16 km
2024/04/12 04:47 KRHV 120447Z 29004KT 10SM SKC 15/11 A2983 RMK LAST
 
KOAK - Oakland, California, USA
Distance from station: NNW 31mi, 50km
Updated: Fri, 04/12/2024 5:53am
Clear
Clear
 Wind from NNW
Wind: NNW 6 mph, 9 km/h
Temperature: 52°F, 11°C
Dew Point: 48°F, 9°C
Humidity: 88%
Barometer: 29.77 inHg, 1008.1 hPa
Clouds: Clear
Visibility: 10 miles, 16 km
2024/04/12 09:53 KOAK 120953Z 34005KT 10SM CLR 11/09 A2977 RMK AO2 SLP081 T01060094
KSQL - San Carlos Airpo, California, USA
Distance from station: NW 21mi, 34km
Updated: Fri, 04/12/2024 6:35am
Clear
Clear
 Wind from NW
Wind: NW 5 mph, 7 km/h
Temperature: 54°F, 12°C
Dew Point: 46°F, 8°C
Humidity: 77%
Barometer: 29.76 inHg, 1007.8 hPa
Clouds: Clear
Visibility: 7 miles, 11 km
2024/04/12 10:35 KSQL 121035Z AUTO 32004KT 7SM CLR 12/08 A2976 RMK AO2
 
KSFO - San Francisco, California, USA
Distance from station: NW 30mi, 49km
Updated: Fri, 04/12/2024 5:56am
Clear
Clear
 Wind from NW
Wind: NW 13 mph, 20 km/h
Temperature: 54°F, 12°C
Dew Point: 46°F, 8°C
Humidity: 77%
Barometer: 29.76 inHg, 1007.8 hPa
Clouds: Clear
Visibility: 10 miles, 16 km
2024/04/12 09:56 KSFO 120956Z 31011KT 10SM CLR 12/08 A2976 RMK AO2 SLP077 T01170083
KE16 - San Martin, California, USA
Distance from station: ESE 27mi, 43km
Updated: Fri, 04/12/2024 6:35am
Few Clouds
Few Clouds
 Wind from NNW
Wind: NNW 3 mph, 6 km/h
Temperature: 50°F, 10°C
Dew Point: 46°F, 8°C
Humidity: 88%
Barometer: 29.78 inHg, 1008.5 hPa
Clouds: Few Clouds
Visibility: 7 miles, 11 km
Cloud details: Few Clouds 4900 ft
2024/04/12 10:35 KE16 121035Z AUTO 34003KT 7SM FEW049 10/08 A2978 RMK AO2 PWINO PNO
 
KWVI - Watsonville, California, USA
Distance from station: SSE 27mi, 44km
Updated: Fri, 04/12/2024 6:42am
Mostly cloudy
Mostly cloudy
 Wind from calm
Wind: Calm
Temperature: 48°F, 9°C
Dew Point: 46°F, 8°C
Humidity: 94%
Barometer: 29.77 inHg, 1008.1 hPa
Clouds: Mostly cloudy
Visibility: 8 miles, 13 km
Cloud details: Mostly cloudy 400 ft
2024/04/12 10:42 KWVI 121042Z AUTO 00000KT 8SM BKN004 09/08 A2977 RMK AO2 T00940083
KHAF - Half Moon Bay, California, USA
Distance from station: WNW 31mi, 50km
Updated: Fri, 04/12/2024 6:35am
Mist, Overcast
Mist, Overcast
 Wind from calm
Wind: Calm
Temperature: 45°F, 7°C
Dew Point: 45°F, 7°C
Humidity: 100%
Barometer: 29.78 inHg, 1008.5 hPa
Summary: Mist
Clouds: Overcast
Visibility: 5 miles, 8 km
Cloud details: Overcast 1000 ft
2024/04/12 10:35 KHAF 121035Z AUTO 00000KT 5SM BR OVC010 07/07 A2978 RMK AO2
 
KHWD - Hayward, California, USA
Distance from station: N 28mi, 44km
Updated: Fri, 04/12/2024 5:54am
Clear
Clear
 Wind from NNE
Wind: NNE 3 mph, 6 km/h
Temperature: 54°F, 12°C
Dew Point: 48°F, 9°C
Humidity: 82%
Barometer: 29.76 inHg, 1007.8 hPa
Clouds: Clear
Visibility: 9 miles, 14 km
2024/04/12 09:54 KHWD 120954Z AUTO 03003KT 9SM CLR 12/09 A2976 RMK AO2 SLP086 T01220089
KLVK - Livermore, California, USA
Distance from station: NNE 31mi, 51km
Updated: Fri, 04/12/2024 5:53am
Clear
Clear
 Wind from calm
Wind: Calm
Temperature: 54°F, 12°C
Dew Point: 46°F, 8°C
Humidity: 77%
Barometer: 29.75 inHg, 1007.5 hPa
Clouds: Clear
Visibility: 10 miles, 16 km
2024/04/12 09:53 KLVK 120953Z AUTO 00000KT 10SM CLR 12/08 A2975 RMK AO2 SLP070 T01170078
Free Website Hit Counter
Free website hit counter